createdAt,value
2023-05-01T00:02:14.196Z,99064.31
2023-05-01T00:04:42.618Z,99062.25
2023-05-01T00:07:11.201Z,99060.94
2023-05-01T00:09:39.685Z,99061.88
2023-05-01T00:12:09.288Z,99069.59
2023-05-01T00:14:37.512Z,99072.59
2023-05-01T00:17:06.356Z,99073.00
2023-05-01T00:19:34.681Z,99072.84
2023-05-01T00:22:03.704Z,99073.47
2023-05-01T00:24:32.204Z,99066.78
2023-05-01T00:27:00.544Z,99066.59
2023-05-01T00:29:30.714Z,99068.63
2023-05-01T00:31:59.024Z,99074.63
2023-05-01T00:34:27.283Z,99078.25
2023-05-01T00:36:55.633Z,99074.09
2023-05-01T00:39:23.884Z,99079.31
2023-05-01T00:41:52.345Z,99074.53
2023-05-01T00:44:20.618Z,99077.50
2023-05-01T00:46:52.580Z,99087.50
2023-05-01T00:49:22.035Z,99086.22
2023-05-01T00:51:53.346Z,99097.59
2023-05-01T00:54:23.287Z,99094.72
2023-05-01T00:56:53.042Z,99093.72
2023-05-01T00:59:21.809Z,99100.53
2023-05-01T01:04:20.601Z,99099.56
2023-05-01T01:06:55.793Z,99097.47
2023-05-01T01:09:33.568Z,99096.19
2023-05-01T01:12:12.739Z,99090.59
2023-05-01T01:14:49.406Z,99098.47
2023-05-01T01:17:29.849Z,99110.19
2023-05-01T01:20:30.383Z,99108.88
2023-05-01T01:23:15.188Z,99115.56
2023-05-01T01:26:07.385Z,99109.50
2023-05-01T01:29:00.664Z,99111.69
2023-05-01T01:31:39.435Z,99109.78
2023-05-01T01:34:16.270Z,99107.19
2023-05-01T01:36:53.074Z,99104.03
2023-05-01T01:39:30.602Z,99113.69
2023-05-01T01:42:01.690Z,99103.50
2023-05-01T01:44:35.070Z,99103.63
2023-05-01T01:47:06.487Z,99106.59
2023-05-01T01:49:40.014Z,99100.75
2023-05-01T01:52:11.588Z,99104.22
2023-05-01T01:54:44.891Z,99109.09
2023-05-01T01:57:17.795Z,99105.91
2023-05-01T01:59:48.296Z,99107.63
2023-05-01T02:02:20.002Z,99108.81
2023-05-01T02:04:51.420Z,99106.72
2023-05-01T02:07:21.102Z,99102.25
2023-05-01T02:09:51.812Z,99105.53
2023-05-01T02:12:22.696Z,99111.50
2023-05-01T02:14:53.130Z,99108.63
2023-05-01T02:17:22.558Z,99114.63
2023-05-01T02:19:55.494Z,99121.38
2023-05-01T02:22:26.224Z,99115.31
2023-05-01T02:24:55.841Z,99115.09
2023-05-01T02:27:27.948Z,99127.53
2023-05-01T02:29:56.424Z,99125.72
2023-05-01T02:32:24.932Z,99114.03
2023-05-01T02:34:55.187Z,99119.50
2023-05-01T02:37:23.524Z,99116.34
2023-05-01T02:39:51.834Z,99112.63
2023-05-01T02:42:23.611Z,99110.03
2023-05-01T02:44:57.032Z,99109.53
2023-05-01T02:47:27.539Z,99116.91
2023-05-01T02:49:59.052Z,99108.72
2023-05-01T02:52:28.637Z,99119.22
2023-05-01T02:54:57.722Z,99119.53
2023-05-01T02:57:26.201Z,99126.50
2023-05-01T02:59:54.878Z,99118.75
2023-05-01T03:02:23.273Z,99128.41
2023-05-01T03:04:51.646Z,99124.34
2023-05-01T03:07:21.448Z,99132.41
2023-05-01T03:09:50.139Z,99131.28
2023-05-01T03:12:18.451Z,99133.97
2023-05-01T03:14:46.724Z,99134.50
2023-05-01T03:17:14.887Z,99134.22
2023-05-01T03:19:43.238Z,99135.50
2023-05-01T03:22:11.441Z,99139.00
2023-05-01T03:24:41.128Z,99148.66
2023-05-01T03:27:09.418Z,99149.97
2023-05-01T03:29:38.298Z,99149.97
2023-05-01T03:32:07.368Z,99153.63
2023-05-01T03:34:35.739Z,99167.41
2023-05-01T03:37:04.040Z,99158.22
2023-05-01T03:39:32.163Z,99172.47
2023-05-01T03:42:01.617Z,99164.13
2023-05-01T03:44:29.904Z,99169.69
2023-05-01T03:46:58.141Z,99176.66
2023-05-01T03:49:26.375Z,99168.59
2023-05-01T03:51:54.535Z,99174.69
2023-05-01T03:54:22.917Z,99170.03
2023-05-01T03:56:51.463Z,99173.41
2023-05-01T03:59:21.054Z,99172.63
2023-05-01T04:01:49.824Z,99180.69
2023-05-01T04:04:18.042Z,99178.25
2023-05-01T04:06:48.777Z,99179.97
2023-05-01T04:09:16.987Z,99185.75
2023-05-01T04:11:45.177Z,99182.97
2023-05-01T04:14:13.418Z,99188.47
2023-05-01T04:16:43.372Z,99182.38
2023-05-01T04:19:11.768Z,99198.66
2023-05-01T04:21:40.511Z,99200.66
2023-05-01T04:24:08.960Z,99202.13
2023-05-01T04:26:36.977Z,99206.53
2023-05-01T04:29:05.483Z,99208.72
2023-05-01T04:31:34.825Z,99210.91
2023-05-01T04:34:04.651Z,99216.28
2023-05-01T04:36:33.189Z,99223.06
2023-05-01T04:39:01.234Z,99219.84
2023-05-01T04:41:29.441Z,99230.59
2023-05-01T04:43:57.782Z,99234.34
2023-05-01T04:46:26.145Z,99229.72
2023-05-01T04:48:54.426Z,99225.34
2023-05-01T04:51:24.244Z,99230.41
2023-05-01T04:53:52.547Z,99241.44
2023-05-01T04:56:21.509Z,99231.38
2023-05-01T04:58:49.678Z,99232.19
2023-05-01T05:01:17.761Z,99230.03
2023-05-01T05:03:49.653Z,99229.94
2023-05-01T05:06:18.723Z,99234.44
2023-05-01T05:08:52.028Z,99239.41
2023-05-01T05:11:20.853Z,99234.69
2023-05-01T05:13:48.963Z,99240.13
2023-05-01T05:16:17.572Z,99254.31
2023-05-01T05:18:46.178Z,99247.47
2023-05-01T05:21:14.281Z,99244.50
2023-05-01T05:23:42.410Z,99245.94
2023-05-01T05:26:12.060Z,99250.38
2023-05-01T05:28:40.978Z,99246.22
2023-05-01T05:31:09.157Z,99248.59
2023-05-01T05:33:37.301Z,99254.00
2023-05-01T05:36:05.683Z,99248.59
2023-05-01T05:38:33.771Z,99254.75
2023-05-01T05:41:02.008Z,99252.16
2023-05-01T05:43:32.405Z,99258.31
2023-05-01T05:46:01.259Z,99251.09
2023-05-01T05:48:29.592Z,99264.78
2023-05-01T05:50:58.007Z,99267.78
2023-05-01T05:53:26.662Z,99266.28
2023-05-01T05:55:55.085Z,99269.06
2023-05-01T05:58:26.119Z,99271.22
2023-05-01T06:00:56.733Z,99270.75
2023-05-01T06:03:25.146Z,99263.75
2023-05-01T06:05:53.572Z,99266.19
2023-05-01T06:08:22.209Z,99272.59
2023-05-01T06:10:50.305Z,99274.13
2023-05-01T06:13:18.467Z,99271.97
2023-05-01T06:15:47.349Z,99278.47
2023-05-01T06:18:17.117Z,99273.06
2023-05-01T06:20:45.490Z,99277.06
2023-05-01T06:23:13.984Z,99277.41
2023-05-01T06:25:42.844Z,99275.59
2023-05-01T06:28:11.120Z,99275.38
2023-05-01T06:30:39.341Z,99277.34
2023-05-01T06:33:07.537Z,99276.53
2023-05-01T06:35:37.231Z,99275.19
2023-05-01T06:38:05.471Z,99275.38
2023-05-01T06:40:34.952Z,99276.94
2023-05-01T06:43:03.389Z,99274.56
2023-05-01T06:45:32.143Z,99276.53
2023-05-01T06:48:00.658Z,99271.16
2023-05-01T06:50:29.521Z,99278.94
2023-05-01T06:53:01.051Z,99276.06
2023-05-01T06:55:31.747Z,99278.72
2023-05-01T06:58:02.717Z,99284.81
2023-05-01T07:00:35.754Z,99283.97
2023-05-01T07:03:04.191Z,99291.63
2023-05-01T07:05:32.397Z,99297.28
2023-05-01T07:08:02.785Z,99293.47
2023-05-01T07:10:31.172Z,99293.31
2023-05-01T07:12:59.692Z,99286.81
2023-05-01T07:15:28.126Z,99288.56
2023-05-01T07:17:58.475Z,99283.19
2023-05-01T07:20:27.089Z,99283.25
2023-05-01T07:22:55.267Z,99283.19
2023-05-01T07:25:25.167Z,99279.81
2023-05-01T07:27:54.411Z,99285.00
2023-05-01T07:30:22.864Z,99288.59
2023-05-01T07:32:51.098Z,99291.34
2023-05-01T07:35:19.453Z,99287.09
2023-05-01T07:37:47.901Z,99288.69
2023-05-01T07:40:16.229Z,99290.34
2023-05-01T07:42:45.858Z,99290.03
2023-05-01T07:45:14.566Z,99291.91
2023-05-01T07:47:43.072Z,99290.22
2023-05-01T07:50:11.728Z,99290.78
2023-05-01T07:52:40.009Z,99288.66
2023-05-01T07:55:09.355Z,99291.81
2023-05-01T07:57:37.689Z,99300.16
2023-05-01T08:00:08.601Z,99290.25
2023-05-01T08:02:36.863Z,99287.94
2023-05-01T08:05:05.249Z,99294.31
2023-05-01T08:07:33.317Z,99292.91
2023-05-01T08:10:01.689Z,99292.25
2023-05-01T08:12:31.366Z,99294.59
2023-05-01T08:14:59.577Z,99294.59
2023-05-01T08:17:29.113Z,99279.94
2023-05-01T08:19:57.793Z,99287.19
2023-05-01T08:22:26.111Z,99283.41
2023-05-01T08:24:54.146Z,99283.56
2023-05-01T08:27:22.462Z,99283.56
2023-05-01T08:29:50.700Z,99291.09
2023-05-01T08:32:19.923Z,99279.59
2023-05-01T08:34:49.626Z,99284.81
2023-05-01T08:37:19.221Z,99283.41
2023-05-01T08:39:47.267Z,99296.16
2023-05-01T08:42:15.517Z,99281.09
2023-05-01T08:44:44.202Z,99283.88
2023-05-01T08:47:16.913Z,99281.22
2023-05-01T08:49:46.724Z,99285.00
2023-05-01T08:52:16.962Z,99281.41
2023-05-01T08:54:46.994Z,99285.81
2023-05-01T08:57:15.372Z,99285.84
2023-05-01T08:59:43.504Z,99280.44
2023-05-01T09:02:12.188Z,99275.38
2023-05-01T09:04:42.432Z,99275.28
2023-05-01T09:07:10.707Z,99276.97
2023-05-01T09:09:40.306Z,99255.88
2023-05-01T09:12:17.773Z,99267.34
2023-05-01T09:14:46.496Z,99265.16
2023-05-01T09:17:15.192Z,99268.31
2023-05-01T09:19:43.419Z,99268.00
2023-05-01T09:22:11.626Z,99270.56
2023-05-01T09:24:41.201Z,99269.06
2023-05-01T09:27:09.787Z,99269.50
2023-05-01T09:29:42.277Z,99272.25
2023-05-01T09:32:18.085Z,99267.16
2023-05-01T09:34:46.319Z,99268.03
2023-05-01T09:37:27.657Z,99264.59
2023-05-01T09:40:11.465Z,99255.22
2023-05-01T09:42:41.038Z,99262.00
2023-05-01T09:45:15.722Z,99255.78
2023-05-01T09:47:44.058Z,99253.50
2023-05-01T09:50:13.924Z,99259.00
2023-05-01T09:52:52.486Z,99248.03
2023-05-01T09:55:25.373Z,99250.06
2023-05-01T09:57:54.000Z,99243.44
2023-05-01T10:00:22.596Z,99242.28
2023-05-01T10:02:51.445Z,99247.06
2023-05-01T10:05:20.445Z,99250.19
2023-05-01T10:07:59.104Z,99250.97
2023-05-01T10:10:29.456Z,99241.97
2023-05-01T10:12:57.998Z,99249.84
2023-05-01T10:15:38.055Z,99248.69
2023-05-01T10:18:06.336Z,99242.06
2023-05-01T10:20:34.581Z,99239.28
2023-05-01T10:23:03.830Z,99234.19
2023-05-01T10:25:34.040Z,99234.19
2023-05-01T10:28:05.023Z,99241.69
2023-05-01T10:30:33.976Z,99229.88
2023-05-01T10:33:02.222Z,99234.66
2023-05-01T10:35:35.711Z,99234.25
2023-05-01T10:38:06.152Z,99231.50
2023-05-01T10:40:49.973Z,99232.66
2023-05-01T10:43:21.084Z,99235.41
2023-05-01T10:45:49.910Z,99231.44
2023-05-01T10:48:54.148Z,99226.34
2023-05-01T10:51:26.487Z,99222.03
2023-05-01T10:54:24.425Z,99223.22
2023-05-01T10:56:54.951Z,99222.81
2023-05-01T10:59:22.900Z,99211.75
2023-05-01T11:01:53.062Z,99218.00
2023-05-01T11:04:51.618Z,99214.81
2023-05-01T11:07:20.872Z,99210.03
2023-05-01T11:09:54.336Z,99215.13
2023-05-01T11:12:53.633Z,99208.91
2023-05-01T11:15:29.718Z,99210.88
2023-05-01T11:17:58.509Z,99203.75
2023-05-01T11:20:49.752Z,99198.56
2023-05-01T11:23:21.842Z,99206.72
2023-05-01T11:25:52.735Z,99206.25
2023-05-01T11:28:22.935Z,99198.19
2023-05-01T11:30:51.257Z,99201.63
2023-05-01T11:33:26.346Z,99197.16
2023-05-01T11:36:05.007Z,99199.06
2023-05-01T11:38:33.330Z,99194.22
2023-05-01T11:41:05.449Z,99195.28
2023-05-01T11:43:34.884Z,99193.19
2023-05-01T11:46:04.110Z,99188.31
2023-05-01T11:48:32.655Z,99188.94
2023-05-01T11:51:00.752Z,99181.34
2023-05-01T11:53:29.169Z,99182.81
2023-05-01T11:55:59.583Z,99177.72
2023-05-01T11:58:36.991Z,99177.38
2023-05-01T12:01:07.559Z,99172.25
2023-05-01T12:03:45.828Z,99173.03
2023-05-01T12:06:15.168Z,99167.44
2023-05-01T12:08:45.447Z,99165.75
2023-05-01T12:11:14.123Z,99168.06
2023-05-01T12:13:44.119Z,99167.44
2023-05-01T12:16:12.881Z,99163.56
2023-05-01T12:18:41.361Z,99160.88
2023-05-01T12:21:17.924Z,99158.09
2023-05-01T12:23:46.276Z,99154.09
2023-05-01T12:26:18.359Z,99154.06
2023-05-01T12:28:58.446Z,99149.47
2023-05-01T12:31:27.721Z,99145.88
2023-05-01T12:33:57.612Z,99145.31
2023-05-01T12:36:27.571Z,99152.91
2023-05-01T12:39:05.275Z,99156.41
2023-05-01T12:41:35.559Z,99145.38
2023-05-01T12:44:16.099Z,99153.16
2023-05-01T12:46:44.583Z,99143.16
2023-05-01T12:49:18.793Z,99141.94
2023-05-01T12:51:49.996Z,99137.50
2023-05-01T12:54:22.331Z,99143.38
2023-05-01T12:56:50.812Z,99145.13
2023-05-01T12:59:24.713Z,99139.94
2023-05-01T13:02:00.576Z,99151.72
2023-05-01T13:04:29.555Z,99155.66
2023-05-01T13:06:58.918Z,99155.53
2023-05-01T13:09:30.767Z,99163.34
2023-05-01T13:12:00.879Z,99165.34
2023-05-01T13:14:30.899Z,99165.16
2023-05-01T13:16:59.183Z,99162.34
2023-05-01T13:19:29.018Z,99156.59
2023-05-01T13:21:58.751Z,99164.13
2023-05-01T13:24:37.823Z,99154.41
2023-05-01T13:27:06.391Z,99159.75
2023-05-01T13:29:36.411Z,99155.25
2023-05-01T13:32:06.373Z,99154.78
2023-05-01T13:34:37.654Z,99153.28
2023-05-01T13:37:05.858Z,99153.78
2023-05-01T13:39:34.077Z,99160.88
2023-05-01T13:42:06.487Z,99148.56
2023-05-01T13:44:44.512Z,99147.25
2023-05-01T13:47:17.547Z,99143.63
2023-05-01T13:49:46.649Z,99154.63
2023-05-01T13:52:18.402Z,99156.56
2023-05-01T13:54:47.645Z,99150.94
2023-05-01T13:57:17.470Z,99150.44
2023-05-01T13:59:48.442Z,99149.63
2023-05-01T14:02:21.926Z,99143.06
2023-05-01T14:04:50.367Z,99138.97
2023-05-01T14:07:20.143Z,99148.84
2023-05-01T14:09:53.846Z,99138.63
2023-05-01T14:12:27.557Z,99138.25
2023-05-01T14:14:57.370Z,99140.81
2023-05-01T14:17:31.520Z,99144.72
2023-05-01T14:19:59.949Z,99140.69
2023-05-01T14:22:30.757Z,99137.66
2023-05-01T14:24:59.542Z,99134.69
2023-05-01T14:27:27.980Z,99137.09
2023-05-01T14:29:57.461Z,99134.06
2023-05-01T14:32:26.313Z,99132.84
2023-05-01T14:34:54.440Z,99130.59
2023-05-01T14:37:22.543Z,99126.66
2023-05-01T14:39:50.844Z,99126.78
2023-05-01T14:42:18.920Z,99126.31
2023-05-01T14:44:47.037Z,99125.56
2023-05-01T14:47:21.919Z,99124.22
2023-05-01T14:49:54.489Z,99122.84
2023-05-01T14:52:22.612Z,99118.00
2023-05-01T14:54:52.923Z,99109.97
2023-05-01T14:57:21.052Z,99104.03
2023-05-01T14:59:49.220Z,99112.53
2023-05-01T15:02:18.692Z,99107.09
2023-05-01T15:04:46.801Z,99108.28
2023-05-01T15:07:15.498Z,99107.41
2023-05-01T15:09:46.388Z,99103.28
2023-05-01T15:12:14.583Z,99098.56
2023-05-01T15:14:42.714Z,99100.06
2023-05-01T15:17:10.850Z,99092.91
2023-05-01T15:19:40.341Z,99089.97
2023-05-01T15:22:08.560Z,99091.44
2023-05-01T15:24:36.676Z,99089.31
2023-05-01T15:27:04.954Z,99095.00
2023-05-01T15:29:36.018Z,99088.63
2023-05-01T15:32:12.099Z,99092.81
2023-05-01T15:34:42.990Z,99092.72
2023-05-01T15:37:11.156Z,99087.53
2023-05-01T15:39:40.490Z,99090.41
2023-05-01T15:42:08.663Z,99083.47
2023-05-01T15:44:36.891Z,99085.41
2023-05-01T15:47:05.021Z,99087.53
2023-05-01T15:49:33.185Z,99091.78
2023-05-01T15:52:03.046Z,99090.75
2023-05-01T15:54:31.151Z,99087.09
2023-05-01T15:57:01.465Z,99081.84
2023-05-01T15:59:29.616Z,99088.63
2023-05-01T16:01:57.823Z,99089.28
2023-05-01T16:04:26.004Z,99087.81
2023-05-01T16:06:54.366Z,99090.47
2023-05-01T16:09:30.121Z,99086.28
2023-05-01T16:11:59.609Z,99078.97
2023-05-01T16:14:27.982Z,99088.78
2023-05-01T16:16:56.280Z,99082.44
2023-05-01T16:19:24.732Z,99081.56
2023-05-01T16:21:52.891Z,99080.69
2023-05-01T16:24:21.041Z,99082.41
2023-05-01T16:26:50.778Z,99075.91
2023-05-01T16:29:19.819Z,99085.47
2023-05-01T16:31:48.379Z,99085.72
2023-05-01T16:34:18.311Z,99086.44
2023-05-01T16:36:47.628Z,99084.28
2023-05-01T16:39:19.282Z,99076.72
2023-05-01T16:41:48.968Z,99077.13
2023-05-01T16:44:20.102Z,99073.00
2023-05-01T16:46:53.553Z,99079.75
2023-05-01T16:49:22.090Z,99077.59
2023-05-01T16:51:50.702Z,99079.19
2023-05-01T16:54:19.341Z,99072.59
2023-05-01T16:56:47.514Z,99074.44
2023-05-01T16:59:15.593Z,99074.59
2023-05-01T17:01:45.256Z,99067.25
2023-05-01T17:04:15.118Z,99066.25
2023-05-01T17:06:46.646Z,99072.81
2023-05-01T17:09:14.918Z,99070.63
2023-05-01T17:11:43.189Z,99064.06
2023-05-01T17:14:11.464Z,99059.44
2023-05-01T17:16:40.432Z,99069.78
2023-05-01T17:19:10.180Z,99064.47
2023-05-01T17:21:38.287Z,99058.88
2023-05-01T17:24:06.800Z,99065.97
2023-05-01T17:26:34.992Z,99064.41
2023-05-01T17:29:04.363Z,99063.72
2023-05-01T17:31:33.101Z,99074.63
2023-05-01T17:34:01.224Z,99069.19
2023-05-01T17:36:30.701Z,99081.75
2023-05-01T17:39:00.260Z,99078.81
2023-05-01T17:41:28.463Z,99078.91
2023-05-01T17:43:56.627Z,99083.59
2023-05-01T17:46:24.880Z,99081.13
2023-05-01T17:48:53.575Z,99078.94
2023-05-01T17:51:21.739Z,99085.31
2023-05-01T17:53:51.238Z,99088.56
2023-05-01T17:56:19.400Z,99093.03
2023-05-01T17:58:50.275Z,99099.81
2023-05-01T18:01:18.614Z,99105.06
2023-05-01T18:03:48.990Z,99102.75
2023-05-01T18:06:18.037Z,99108.31
2023-05-01T18:08:46.314Z,99107.22
2023-05-01T18:11:15.860Z,99116.66
2023-05-01T18:13:47.433Z,99114.25
2023-05-01T18:16:16.095Z,99114.31
2023-05-01T18:18:44.600Z,99128.00
2023-05-01T18:21:13.089Z,99121.84
2023-05-01T18:23:41.229Z,99122.34
2023-05-01T18:26:09.351Z,99127.22
2023-05-01T18:28:39.112Z,99128.59
2023-05-01T18:31:07.513Z,99132.34
2023-05-01T18:33:36.471Z,99137.63
2023-05-01T18:36:04.908Z,99138.72
2023-05-01T18:38:33.476Z,99138.63
2023-05-01T18:41:01.870Z,99142.78
2023-05-01T18:43:30.011Z,99145.81
2023-05-01T18:46:00.742Z,99150.38
2023-05-01T18:48:28.929Z,99156.09
2023-05-01T18:51:07.815Z,99157.38
2023-05-01T18:53:37.680Z,99159.06
2023-05-01T18:56:06.367Z,99154.47
2023-05-01T18:58:34.473Z,99160.09
2023-05-01T19:01:04.031Z,99159.13
2023-05-01T19:03:32.189Z,99174.16
2023-05-01T19:06:00.312Z,99171.97
2023-05-01T19:08:28.426Z,99170.88
2023-05-01T19:10:56.539Z,99173.06
2023-05-01T19:13:24.652Z,99177.19
2023-05-01T19:15:53.569Z,99182.00
2023-05-01T19:18:23.142Z,99182.50
2023-05-01T19:20:51.317Z,99187.75
2023-05-01T19:23:19.394Z,99190.28
2023-05-01T19:25:47.472Z,99190.53
2023-05-01T19:28:15.799Z,99193.47
2023-05-01T19:30:43.937Z,99187.84
2023-05-01T19:33:12.234Z,99197.81
2023-05-01T19:35:41.883Z,99192.28
2023-05-01T19:38:09.994Z,99193.44
2023-05-01T19:40:39.731Z,99197.41
2023-05-01T19:43:07.942Z,99200.00
2023-05-01T19:45:36.719Z,99194.94
2023-05-01T19:48:06.152Z,99196.72
2023-05-01T19:50:34.357Z,99189.16
2023-05-01T19:53:05.348Z,99191.31
2023-05-01T19:55:33.640Z,99189.16
2023-05-01T19:58:01.679Z,99190.19
2023-05-01T20:00:29.626Z,99190.75
2023-05-01T20:02:57.796Z,99187.78
2023-05-01T20:05:28.616Z,99197.19
2023-05-01T20:07:58.021Z,99193.44
2023-05-01T20:10:27.910Z,99198.50
2023-05-01T20:12:56.448Z,99201.63
2023-05-01T20:15:24.672Z,99207.47
2023-05-01T20:17:52.910Z,99205.97
2023-05-01T20:20:21.717Z,99208.91
2023-05-01T20:22:52.839Z,99207.19
2023-05-01T20:25:20.968Z,99214.53
2023-05-01T20:27:50.473Z,99212.94
2023-05-01T20:30:18.903Z,99213.09
2023-05-01T20:32:48.060Z,99217.06
2023-05-01T20:35:16.421Z,99224.38
2023-05-01T20:37:44.553Z,99221.34
2023-05-01T20:40:13.888Z,99218.63
2023-05-01T20:42:43.084Z,99228.72
2023-05-01T20:45:15.975Z,99225.72
2023-05-01T20:47:44.257Z,99231.81
2023-05-01T20:50:12.944Z,99225.38
2023-05-01T20:52:41.349Z,99226.06
2023-05-01T20:55:10.839Z,99228.84
2023-05-01T20:57:51.866Z,99233.25
2023-05-01T21:00:22.303Z,99235.19
2023-05-01T21:02:52.336Z,99240.03
2023-05-01T21:05:20.689Z,99249.47
2023-05-01T21:07:49.394Z,99250.00
2023-05-01T21:10:17.996Z,99256.28
2023-05-01T21:12:46.512Z,99255.66
2023-05-01T21:15:15.125Z,99260.00
2023-05-01T21:17:45.025Z,99256.66
2023-05-01T21:20:17.160Z,99260.34
2023-05-01T21:22:48.394Z,99268.66
2023-05-01T21:25:17.812Z,99262.28
2023-05-01T21:27:46.052Z,99273.78
2023-05-01T21:30:17.130Z,99277.16
2023-05-01T21:32:47.618Z,99277.31
2023-05-01T21:35:19.284Z,99272.22
2023-05-01T21:37:49.357Z,99275.91
2023-05-01T21:40:17.880Z,99273.84
2023-05-01T21:42:46.428Z,99286.59
2023-05-01T21:45:17.755Z,99281.50
2023-05-01T21:47:50.665Z,99293.63
2023-05-01T21:50:20.416Z,99284.56
2023-05-01T21:52:49.823Z,99288.72
2023-05-01T21:55:19.994Z,99293.97
2023-05-01T21:57:49.975Z,99299.06
2023-05-01T22:00:19.260Z,99300.38
2023-05-01T22:02:51.238Z,99306.28
2023-05-01T22:05:22.711Z,99307.06
2023-05-01T22:07:52.825Z,99306.09
2023-05-01T22:10:21.419Z,99304.38
2023-05-01T22:12:50.331Z,99306.13
2023-05-01T22:15:18.667Z,99302.13
2023-05-01T22:17:48.447Z,99306.44
2023-05-01T22:20:16.781Z,99307.25
2023-05-01T22:22:44.905Z,99310.59
2023-05-01T22:25:13.516Z,99317.91
2023-05-01T22:27:44.906Z,99325.06
2023-05-01T22:30:13.943Z,99322.50
2023-05-01T22:32:42.122Z,99323.78
2023-05-01T22:35:12.076Z,99325.84
2023-05-01T22:37:40.576Z,99326.47
2023-05-01T22:40:09.714Z,99314.72
2023-05-01T22:42:38.287Z,99320.56
2023-05-01T22:45:07.510Z,99327.09
2023-05-01T22:47:36.143Z,99328.22
2023-05-01T22:50:05.340Z,99328.81
2023-05-01T22:52:35.061Z,99335.97
2023-05-01T22:55:03.300Z,99327.69
2023-05-01T22:57:31.826Z,99332.25
2023-05-01T23:00:00.254Z,99327.31
2023-05-01T23:02:29.360Z,99323.31
2023-05-01T23:04:57.855Z,99326.66
2023-05-01T23:07:26.016Z,99332.69
2023-05-01T23:09:57.549Z,99330.44
2023-05-01T23:12:26.654Z,99327.38
2023-05-01T23:14:56.605Z,99333.25
2023-05-01T23:17:25.114Z,99326.41
2023-05-01T23:19:54.776Z,99316.84
2023-05-01T23:22:23.518Z,99320.13
2023-05-01T23:24:51.723Z,99326.97
2023-05-01T23:27:23.032Z,99322.16
2023-05-01T23:29:56.588Z,99327.91
2023-05-01T23:32:27.909Z,99323.13
2023-05-01T23:35:01.298Z,99320.25
2023-05-01T23:37:29.744Z,99321.47
2023-05-01T23:40:01.097Z,99329.53
2023-05-01T23:42:31.193Z,99324.06
2023-05-01T23:44:59.930Z,99328.00
2023-05-01T23:47:29.166Z,99330.22
2023-05-01T23:50:00.723Z,99331.63
2023-05-01T23:52:31.222Z,99322.25
2023-05-01T23:54:59.512Z,99322.53
2023-05-01T23:57:27.685Z,99326.03
2023-05-01T23:59:57.462Z,99324.44
